This is the latest recevied weather packets stored in our database for station/object KC8JWT. If no packets are shown the sender has not sent any weather packets the latest 10 day(s).
| Time | Temp. | Humidity | Pressure | Rain* | Wind** | Luminosity | Snow |
|---|---|---|---|---|---|---|---|
| 1778166657 | 14.44° C | 42% | 1013.7 hPa | 0 mm | - | 813 W/m² | - |
| 1778166355 | 14.44° C | 42% | 1013.8 hPa | 0 mm | - | 748 W/m² | - |
| 1778166051 | 14.44° C | 43% | 1013.7 hPa | 0 mm | - | 765 W/m² | - |
| 1778165746 | 14.44° C | 42% | 1013.8 hPa | 0 mm | - | 171 W/m² | - |
| 1778165444 | 15° C | 45% | 1013.6 hPa | 0 mm | - | 575 W/m² | - |
| 1778165140 | 14.44° C | 45% | 1013.9 hPa | 0 mm | - | 298 W/m² | - |
| 1778164838 | 13.89° C | 49% | 1013.7 hPa | 0 mm | - | 752 W/m² | - |
| 1778164535 | 14.44° C | 49% | 1013.9 hPa | 0 mm | - | 157 W/m² | - |
| 1778164233 | 15° C | 47% | 1014.1 hPa | 0 mm | - | 159 W/m² | - |
| 1778163937 | 15.56° C | 49% | 1014.3 hPa | 0 mm | - | 651 W/m² | - |
| 1778163625 | 15° C | 50% | 1014.1 hPa | 0 mm | - | 600 W/m² | - |
| 1778163321 | 13.89° C | 53% | 1014 hPa | 0 mm | - | 579 W/m² | - |
| 1778163018 | 14.44° C | 51% | 1014.3 hPa | 0 mm | - | 561 W/m² | - |
| 1778162715 | 14.44° C | 53% | 1014.2 hPa | 0 mm | - | 544 W/m² | - |
| 1778162412 | 13.89° C | 53% | 1014.3 hPa | 0 mm | - | 531 W/m² | - |
| 1778162109 | 13.33° C | 53% | 1014.5 hPa | 0 mm | - | 487 W/m² | - |
| 1778161806 | 12.78° C | 54% | 1014.5 hPa | 0 mm | - | 501 W/m² | - |
| 1778161502 | 12.78° C | 56% | 1014.6 hPa | 0 mm | - | 486 W/m² | - |
| 1778161198 | 13.33° C | 56% | 1014.5 hPa | 0 mm | - | 469 W/m² | - |
| 1778160894 | 13.33° C | 55% | 1014.5 hPa | 0 mm | - | 450 W/m² | - |
| 1778160593 | 13.33° C | 54% | 1014.6 hPa | 0 mm | - | 431 W/m² | - |
| 1778160289 | 13.33° C | 53% | 1014.6 hPa | 0 mm | - | 418 W/m² | - |
| 1778159985 | 13.33° C | 58% | 1014.6 hPa | 0 mm | - | 294 W/m² | - |
| 1778159682 | 11.67° C | 68% | 1014.6 hPa | 0 mm | - | 82 W/m² | - |
| 1778159379 | 11.67° C | 64% | 1014.8 hPa | 0 mm | - | 364 W/m² | - |
* Rain latest hour (hover to see other rain measurements)
** Current wind speed in m/s (hover to see current wind gust speed)